Time;durP1;ratioP1;P1;durP2;ratioP2;P2;SDS_P1;SDS_P2;PMS_P1;PMS_P2;Temp;Humidity;BMP_temperature;BMP_pressure;BME280_temperature;BME280_humidity;BME280_pressure;Samples;Min_cycle;Max_cycle;Signal;HPM_P1;HPM_P2
2022/12/11 00:00:45;;;;;;;84.47;26.13;;;;;;;2.70;63.99;99337.91;5053045;28;20140;-79
2022/12/11 00:03:11;;;;;;;88.38;24.98;;;;;;;2.65;64.21;99337.22;5053155;28;20084;-78
2022/12/11 00:05:43;;;;;;;90.45;24.58;;;;;;;2.62;64.74;99334.75;5052828;28;20473;-79
2022/12/11 00:08:10;;;;;;;80.18;24.77;;;;;;;2.59;64.25;99334.81;5052818;28;20065;-79
2022/12/11 00:10:36;;;;;;;70.40;22.90;;;;;;;2.58;64.81;99331.38;5052795;28;20059;-78
2022/12/11 00:13:03;;;;;;;58.97;22.17;;;;;;;2.59;64.76;99327.84;5052725;28;20064;-78
2022/12/11 00:15:30;;;;;;;72.25;22.95;;;;;;;2.60;64.86;99323.53;5052837;28;20088;-78
2022/12/11 00:17:56;;;;;;;60.13;21.88;;;;;;;2.63;64.69;99318.25;5052641;28;20493;-78
2022/12/11 00:20:22;;;;;;;76.95;25.30;;;;;;;2.65;64.98;99321.63;5052615;28;20092;-78
2022/12/11 00:22:49;;;;;;;60.58;21.17;;;;;;;2.66;64.55;99315.56;5052509;28;20542;-78
2022/12/11 00:25:15;;;;;;;62.45;21.13;;;;;;;2.69;64.57;99318.03;5052245;28;20110;-78
2022/12/11 00:27:41;;;;;;;60.17;22.35;;;;;;;2.68;64.92;99316.34;5052289;28;20127;-78
2022/12/11 00:30:08;;;;;;;53.75;20.95;;;;;;;2.68;64.99;99311.16;5052649;28;20049;-79
2022/12/11 00:32:35;;;;;;;59.92;21.35;;;;;;;2.69;64.49;99314.59;5052869;28;20332;-79
2022/12/11 00:35:03;;;;;;;58.70;20.75;;;;;;;2.68;64.80;99305.94;5052005;28;20075;-78
2022/12/11 00:37:29;;;;;;;58.35;21.92;;;;;;;2.69;64.81;99309.41;5052125;28;20152;-78
2022/12/11 00:39:56;;;;;;;73.22;22.13;;;;;;;2.71;64.73;99313.66;5052151;28;20412;-78
2022/12/11 00:42:22;;;;;;;87.57;20.48;;;;;;;2.71;64.59;99321.44;5052068;28;20075;-78
2022/12/11 00:44:49;;;;;;;59.22;21.67;;;;;;;2.72;64.67;99314.47;5052307;28;20104;-78
2022/12/11 00:47:16;;;;;;;53.67;19.75;;;;;;;2.70;64.94;99317.13;5034333;28;20088;-79
2022/12/11 00:49:42;;;;;;;61.15;20.13;;;;;;;2.71;64.81;99318.00;5051919;28;20140;-78
2022/12/11 00:52:16;;;;;;;58.90;19.95;;;;;;;2.71;64.49;99311.06;5052505;28;20145;-78
2022/12/11 00:57:29;;;;;;;57.35;19.98;;;;;;;2.70;65.28;99319.72;5047736;23;20583;-86
2022/12/11 00:59:55;;;;;;;68.32;20.20;;;;;;;2.72;64.70;99317.94;5034200;28;20174;-86
2022/12/11 01:02:24;;;;;;;70.28;21.23;;;;;;;2.70;65.08;99316.28;5033993;28;20065;-86
2022/12/11 01:04:50;;;;;;;84.15;21.70;;;;;;;2.71;64.92;99312.78;5016458;28;20120;-86
2022/12/11 01:07:17;;;;;;;54.50;20.42;;;;;;;2.71;64.84;99315.38;5033788;28;20057;-86
2022/12/11 01:12:29;;;;;;;51.00;19.70;;;;;;;2.71;65.28;99316.25;5033805;28;20560;-86
2022/12/11 01:14:55;;;;;;;56.55;21.55;;;;;;;2.73;65.02;99309.25;5033724;28;20057;-86
2022/12/11 01:17:24;;;;;;;53.40;19.52;;;;;;;2.75;64.88;99309.19;5016016;28;20088;-86
2022/12/11 01:19:53;;;;;;;65.20;21.40;;;;;;;2.78;65.32;99309.09;5016145;28;20064;-86
2022/12/11 01:22:20;;;;;;;50.60;19.58;;;;;;;2.82;64.89;99317.66;5016419;28;20053;-86
2022/12/11 01:24:52;;;;;;;47.63;18.45;;;;;;;2.81;65.78;99308.16;5033025;28;20097;-86
2022/12/11 01:27:19;;;;;;;47.85;19.17;;;;;;;2.86;65.11;99311.44;5016209;28;20084;-86
2022/12/11 01:29:45;;;;;;;50.70;19.52;;;;;;;2.88;65.06;99308.81;5015724;28;20467;-86
2022/12/11 01:32:11;;;;;;;49.95;18.45;;;;;;;2.88;64.72;99311.41;5033215;28;20057;-86
2022/12/11 01:34:38;;;;;;;102.07;19.23;;;;;;;2.88;64.59;99322.66;5015834;28;20085;-87
2022/12/11 01:37:10;;;;;;;52.72;18.75;;;;;;;2.84;65.22;99321.91;5033057;28;20080;-86
2022/12/11 01:39:40;;;;;;;117.90;22.27;;;;;;;2.84;64.18;99323.66;5015871;28;20468;-86
2022/12/11 01:42:15;;;;;;;62.88;18.13;;;;;;;2.82;64.72;99320.25;5033354;28;20617;-86
2022/12/11 01:44:42;;;;;;;50.53;17.45;;;;;;;2.82;64.81;99320.25;5015857;28;20131;-86
2022/12/11 01:47:18;;;;;;;65.75;18.15;;;;;;;2.79;65.55;99322.94;5033104;28;20057;-86
2022/12/11 01:49:45;;;;;;;67.63;18.38;;;;;;;2.81;64.73;99331.56;5015573;28;20472;-86
2022/12/11 01:52:25;;;;;;;48.35;16.45;;;;;;;2.78;65.07;99326.44;5033100;28;20061;-86
2022/12/11 01:54:52;;;;;;;49.60;17.02;;;;;;;2.81;64.59;99326.34;5033187;28;20081;-86
2022/12/11 01:57:41;;;;;;;65.32;17.35;;;;;;;2.74;65.39;99323.94;5043799;28;20486;-86
2022/12/11 02:00:08;;;;;;;48.50;15.88;;;;;;;2.76;64.50;99321.28;5037091;28;20053;-86
2022/12/11 02:02:41;;;;;;;62.20;16.13;;;;;;;2.71;64.89;99323.19;5033112;28;20054;-86
2022/12/11 02:05:08;;;;;;;;;;;;;;;2.71;65.44;99325.78;5032175;28;20505;-86
2022/12/11 02:07:43;;;;;;;59.60;14.93;;;;;;;2.68;64.74;99333.66;5015572;28;19920;-86
2022/12/11 02:10:13;;;;;;;33.42;13.48;;;;;;;2.65;64.49;99326.00;5015619;28;20049;-86
2022/12/11 02:12:42;;;;;;;90.75;17.27;;;;;;;2.58;65.05;99326.16;5032950;28;20053;-86
2022/12/11 02:15:16;;;;;;;56.03;15.40;;;;;;;2.53;64.61;99319.41;5015106;28;20057;-86
2022/12/11 02:18:21;;;;;;;56.40;14.07;;;;;;;2.44;64.81;99326.59;5032441;28;20085;-86
2022/12/11 02:21:07;;;;;;;70.70;13.52;;;;;;;2.40;65.17;99314.63;5031299;28;20558;-86
2022/12/11 02:24:00;;;;;;;56.10;13.60;;;;;;;2.38;65.25;99313.78;5032651;28;20486;-86
2022/12/11 02:27:24;;;;;;;49.05;13.20;;;;;;;2.34;65.55;99309.59;5032725;28;20482;-86
2022/12/11 02:30:41;;;;;;;73.10;13.82;;;;;;;2.32;65.76;99314.81;4955354;28;20126;-86
2022/12/11 02:33:19;;;;;;;40.50;13.55;;;;;;;2.31;65.23;99312.25;5000779;28;20453;-86
2022/12/11 02:35:47;;;;;;;50.30;13.75;;;;;;;2.29;64.94;99308.88;5031837;28;20053;-86
2022/12/11 02:38:30;;;;;;;34.15;12.68;;;;;;;2.26;65.87;99317.63;5032719;28;20061;-86
2022/12/11 02:40:59;;;;;;;35.60;12.67;;;;;;;2.30;65.26;99324.41;5032444;28;20101;-86
2022/12/11 02:43:27;;;;;;;43.70;13.20;;;;;;;2.32;65.29;99322.63;5032179;28;20057;-86
2022/12/11 02:45:55;;;;;;;36.40;13.13;;;;;;;2.36;65.36;99318.19;5032477;28;20461;-86
2022/12/11 02:48:27;;;;;;;39.72;13.73;;;;;;;2.37;65.75;99324.22;5014606;28;20088;-86
2022/12/11 02:50:58;;;;;;;26.47;9.77;;;;;;;2.41;65.32;99324.09;5032537;28;20081;-85
2022/12/11 02:53:30;;;;;;;47.20;12.73;;;;;;;2.44;65.28;99321.38;5014477;28;20057;-86
2022/12/11 02:56:06;;;;;;;39.95;12.07;;;;;;;2.45;65.47;99315.31;5032408;28;20057;-86
2022/12/11 02:58:37;;;;;;;87.35;13.65;;;;;;;2.49;65.06;99318.66;5032243;28;20378;-86
2022/12/11 03:01:03;;;;;;;39.60;11.43;;;;;;;2.51;65.19;99313.41;5032154;28;20104;-86
2022/12/11 03:03:30;;;;;;;77.55;13.80;;;;;;;2.53;64.98;99320.28;5014846;28;20068;-86
2022/12/11 03:05:56;;;;;;;33.00;12.65;;;;;;;2.53;65.07;99311.59;5032056;28;20095;-86
2022/12/11 03:08:23;;;;;;;34.33;12.30;;;;;;;2.56;64.79;99311.53;5014679;28;20053;-86
2022/12/11 03:11:19;;;;;;;57.95;13.93;;;;;;;2.53;65.88;99315.06;5031924;28;20502;-86
2022/12/11 03:13:45;;;;;;;34.67;11.88;;;;;;;2.56;65.16;99317.59;5014657;28;20054;-86
2022/12/11 03:16:33;;;;;;;30.75;12.63;;;;;;;2.54;64.99;99315.94;5031800;28;20061;-86
2022/12/11 03:19:30;;;;;;;29.15;11.75;;;;;;;2.54;65.13;99308.13;5032027;28;20052;-86
2022/12/11 03:25:03;;;;;;;38.55;11.25;;;;;;;2.54;64.86;99313.34;5032182;28;20057;-86
2022/12/11 03:28:03;;;;;;;24.38;10.32;;;;;;;2.53;64.81;99314.22;5014577;28;20108;-86
2022/12/11 03:30:32;;;;;;;33.63;10.77;;;;;;;2.55;64.69;99315.03;5014222;28;20104;-86
2022/12/11 03:33:36;;;;;;;28.10;11.52;;;;;;;2.52;65.65;99320.31;5014392;28;20081;-86
2022/12/11 03:36:10;;;;;;;28.92;10.90;;;;;;;2.50;64.47;99316.91;4974179;28;20060;-86
2022/12/11 03:39:12;;;;;;;59.58;12.40;;;;;;;2.43;65.00;99321.47;4973995;28;20114;-85
2022/12/11 03:41:39;;;;;;;34.20;8.85;;;;;;;2.41;64.40;99320.63;4990152;28;20109;-86
2022/12/11 03:44:07;;;;;;;36.35;11.60;;;;;;;2.34;63.91;99318.25;4974022;28;20783;-86
2022/12/11 03:46:38;;;;;;;22.23;9.98;;;;;;;2.29;64.40;99314.06;4989862;28;20148;-86
2022/12/11 03:49:11;;;;;;;23.75;10.98;;;;;;;2.25;64.72;99309.88;4977571;28;20062;-86
2022/12/11 03:52:00;;;;;;;31.13;10.63;;;;;;;2.19;64.96;99314.34;4977426;28;20051;-86
2022/12/11 03:54:27;;;;;;;67.32;13.32;;;;;;;2.19;64.63;99306.56;4993871;28;20109;-86
2022/12/11 03:56:57;;;;;;;79.90;12.50;;;;;;;2.17;64.47;99315.28;4993841;28;20065;-86
2022/12/11 03:59:23;;;;;;;41.63;10.57;;;;;;;2.15;64.62;99319.66;5044629;28;20088;-86
2022/12/11 04:02:09;;;;;;;32.13;11.73;;;;;;;2.07;65.32;99317.31;5054961;28;20089;-86
2022/12/11 04:04:37;;;;;;;21.75;9.95;;;;;;;2.08;65.20;99316.41;5037456;28;20080;-86
2022/12/11 04:07:06;;;;;;;35.28;11.65;;;;;;;2.07;65.22;99314.72;5037369;28;20068;-86
2022/12/11 04:09:33;;;;;;;43.00;11.90;;;;;;;2.07;65.16;99312.97;5054819;28;20057;-86
2022/12/11 04:11:59;;;;;;;101.97;13.05;;;;;;;2.07;64.70;99315.56;5029196;28;20375;-86
2022/12/11 04:24:13;;;;;;;26.77;10.32;;;;;;;2.03;65.07;99313.09;5048157;28;20088;-86
2022/12/11 04:25:50;;;;;;;27.08;10.05;;;;;;;2.04;65.17;99317.38;5054877;28;20064;-86
2022/12/11 04:28:16;;;;;;;34.65;10.98;;;;;;;2.05;65.35;99321.69;5036881;28;20080;-86
2022/12/11 04:30:48;;;;;;;29.63;10.73;;;;;;;2.05;65.37;99311.28;5054362;28;20053;-86
2022/12/11 04:33:15;;;;;;;34.97;9.33;;;;;;;2.06;65.10;99308.66;5054482;28;20091;-88
2022/12/11 04:36:19;;;;;;;83.88;11.13;;;;;;;2.05;65.67;99308.69;5036942;28;20053;-88
2022/12/11 04:38:45;;;;;;;37.05;9.88;;;;;;;2.06;64.79;99302.63;5054369;28;20140;-88
2022/12/11 04:41:25;;;;;;;69.97;10.60;;;;;;;2.03;65.56;99307.91;5054376;28;20104;-87
2022/12/11 04:43:52;;;;;;;26.98;10.32;;;;;;;2.05;65.08;99293.13;5054524;28;20466;-88
2022/12/11 04:46:22;;;;;;;32.47;10.50;;;;;;;2.05;64.71;99306.09;5054312;28;20052;-88
2022/12/11 04:48:50;;;;;;;34.55;11.75;;;;;;;2.06;65.16;99300.03;5036548;28;20478;-87
2022/12/11 04:51:22;;;;;;;47.33;11.55;;;;;;;2.08;65.16;99290.44;4957814;28;20515;-88
2022/12/11 04:53:50;;;;;;;35.17;11.18;;;;;;;2.09;65.41;99299.91;4957176;28;20417;-88
2022/12/11 04:56:24;;;;;;;25.52;11.00;;;;;;;2.08;65.36;99287.84;5001133;28;20456;-87
2022/12/11 04:58:53;;;;;;;23.55;10.90;;;;;;;2.12;65.08;99297.25;5035179;28;20065;-88
2022/12/11 05:01:21;;;;;;;26.95;9.95;;;;;;;2.12;64.80;99294.66;5053871;28;20057;-87
2022/12/11 05:04:08;;;;;;;24.73;10.57;;;;;;;2.08;65.31;99291.31;5053961;28;20064;-88
2022/12/11 05:06:34;;;;;;;23.08;10.38;;;;;;;2.12;65.15;99292.06;5053925;28;20100;-87
2022/12/11 05:09:01;;;;;;;23.70;10.18;;;;;;;2.09;65.03;99289.53;5054124;28;20123;-88
2022/12/11 05:11:42;;;;;;;23.05;10.07;;;;;;;2.04;65.28;99294.88;5053706;28;20088;-88
2022/12/11 05:14:08;;;;;;;20.83;9.32;;;;;;;2.06;64.92;99284.47;5036192;28;20111;-88
2022/12/11 05:16:35;;;;;;;22.92;9.88;;;;;;;2.05;64.94;99293.13;5035871;28;20107;-88
2022/12/11 05:19:01;;;;;;;23.27;10.32;;;;;;;2.06;65.26;99287.06;5036171;28;20408;-87
2022/12/11 05:22:01;;;;;;;21.90;10.40;;;;;;;2.05;65.72;99295.72;5053555;28;20127;-87
2022/12/11 05:24:27;;;;;;;22.00;9.95;;;;;;;2.10;64.98;99296.47;5033076;28;20053;-87
2022/12/11 05:26:56;;;;;;;26.42;10.27;;;;;;;2.12;65.45;99294.66;5053331;28;20086;-87
2022/12/11 05:29:22;;;;;;;23.98;9.35;;;;;;;2.14;65.09;99298.06;5060017;28;20099;-88
2022/12/11 05:31:55;;;;;;;25.80;10.32;;;;;;;2.14;65.43;99290.28;5034968;28;20049;-88
2022/12/11 05:34:21;;;;;;;18.58;9.45;;;;;;;2.18;65.09;99294.47;5035902;28;20112;-87
2022/12/11 05:37:22;;;;;;;20.25;9.52;;;;;;;2.17;65.56;99284.97;5053844;28;20464;-87
2022/12/11 05:39:48;;;;;;;19.63;9.18;;;;;;;2.23;65.00;99296.91;5053818;28;20588;-88
2022/12/11 05:42:15;;;;;;;16.13;8.60;;;;;;;2.24;65.42;99288.22;5053636;28;20057;-87
2022/12/11 05:44:44;;;;;;;24.48;9.52;;;;;;;2.25;65.26;99282.16;5053503;28;20110;-88
2022/12/11 05:47:10;;;;;;;21.60;9.48;;;;;;;2.29;65.08;99275.97;5053394;28;20057;-86
2022/12/11 05:49:37;;;;;;;24.20;9.80;;;;;;;2.32;65.32;99272.44;5035697;28;20053;-87
2022/12/11 05:52:16;;;;;;;21.60;9.68;;;;;;;2.32;65.62;99275.03;5035589;28;20103;-87
2022/12/11 05:54:42;;;;;;;18.90;8.57;;;;;;;2.39;64.85;99278.28;5035603;28;20195;-88
2022/12/11 05:57:10;;;;;;;20.50;9.57;;;;;;;2.41;64.89;99281.69;5052689;28;20057;-88
2022/12/11 05:59:37;;;;;;;18.27;9.02;;;;;;;2.44;65.21;99285.00;5053135;28;20143;-87
2022/12/11 06:02:03;;;;;;;22.33;9.25;;;;;;;2.47;64.96;99290.13;5035356;28;20083;-88
2022/12/11 06:04:30;;;;;;;22.30;9.57;;;;;;;2.50;65.11;99296.97;5051809;28;20057;-88
2022/12/11 06:06:57;;;;;;;22.83;10.10;;;;;;;2.53;65.11;99291.69;5052935;28;20115;-87
2022/12/11 06:09:24;;;;;;;21.00;9.95;;;;;;;2.55;64.55;99289.03;5053015;28;20061;-87
2022/12/11 06:11:50;;;;;;;22.10;10.23;;;;;;;2.56;64.46;99290.75;5052610;28;20094;-88
2022/12/11 06:14:17;;;;;;;21.73;10.13;;;;;;;2.55;64.76;99283.84;5052509;28;20116;-88
2022/12/11 06:16:44;;;;;;;25.15;11.38;;;;;;;2.53;64.23;99280.44;5052714;28;20048;-87
2022/12/11 06:19:17;;;;;;;21.30;10.48;;;;;;;2.49;64.22;99284.88;5052661;28;20061;-88
2022/12/11 06:21:45;;;;;;;24.35;11.40;;;;;;;2.48;64.12;99285.78;5051147;28;20509;-88
2022/12/11 06:24:11;;;;;;;24.13;10.90;;;;;;;2.44;64.11;99281.59;5035019;28;20053;-88
2022/12/11 06:27:01;;;;;;;28.20;12.05;;;;;;;2.36;64.47;99284.44;5052527;28;20064;-88
2022/12/11 06:29:27;;;;;;;23.10;11.48;;;;;;;2.38;64.07;99292.16;5035078;28;20048;-88
2022/12/11 06:32:03;;;;;;;22.42;10.45;;;;;;;2.31;64.96;99288.88;5034357;28;20053;-88
2022/12/11 06:34:29;;;;;;;21.48;10.63;;;;;;;2.31;64.67;99286.28;5052229;28;20057;-88
2022/12/11 06:36:56;;;;;;;20.02;9.45;;;;;;;2.29;64.56;99282.91;5034714;28;20103;-88
2022/12/11 06:39:22;;;;;;;22.02;9.30;;;;;;;2.29;65.08;99275.13;5049620;28;20400;-88
2022/12/11 06:41:49;;;;;;;17.65;8.20;;;;;;;2.29;65.26;99282.91;5055712;28;20048;-87
2022/12/11 06:44:15;;;;;;;20.13;9.77;;;;;;;2.31;64.73;99271.56;5064705;28;20049;-86
2022/12/11 06:46:44;;;;;;;18.95;8.63;;;;;;;2.33;65.20;99279.31;5058227;28;20633;-85
2022/12/11 06:49:10;;;;;;;19.23;8.60;;;;;;;2.36;65.29;99274.03;5045592;28;20055;-86
2022/12/11 06:51:39;;;;;;;18.23;8.55;;;;;;;2.38;65.10;99276.56;5058450;28;20107;-86
2022/12/11 06:54:05;;;;;;;16.25;8.52;;;;;;;2.40;64.66;99277.38;5030934;28;20110;-87
2022/12/11 06:59:42;;;;;;;19.65;8.32;;;;;;;2.35;64.29;99274.91;4968031;28;20138;-78
2022/12/11 07:02:12;;;;;;;21.65;8.50;;;;;;;2.31;64.26;99286.28;4970639;28;20130;-78
2022/12/11 07:04:39;;;;;;;15.73;7.88;;;;;;;2.29;64.88;99277.72;4971666;28;20055;-78
2022/12/11 07:07:07;;;;;;;16.38;7.93;;;;;;;2.26;64.81;99283.00;4978593;28;20453;-78
2022/12/11 07:09:34;;;;;;;14.88;7.47;;;;;;;2.25;64.24;99286.50;4989624;28;20085;-78
2022/12/11 07:12:00;;;;;;;17.25;7.38;;;;;;;2.25;64.55;99286.50;4989745;28;20056;-78
2022/12/11 07:14:26;;;;;;;14.98;7.28;;;;;;;2.26;64.61;99293.38;4989907;28;20092;-77
2022/12/11 07:16:53;;;;;;;17.15;7.93;;;;;;;2.28;64.88;99291.59;4989465;28;20173;-77
2022/12/11 07:19:19;;;;;;;16.13;7.65;;;;;;;2.30;65.04;99298.44;4988405;28;20424;-78
2022/12/11 07:21:46;;;;;;;15.50;7.30;;;;;;;2.32;64.29;99286.25;4990099;28;20058;-78
2022/12/11 07:24:12;;;;;;;19.13;8.18;;;;;;;2.34;64.98;99284.47;4993670;28;20108;-78
2022/12/11 07:26:38;;;;;;;17.25;7.47;;;;;;;2.36;64.60;99284.44;4975965;28;20104;-78
2022/12/11 07:29:05;;;;;;;16.60;7.93;;;;;;;2.38;64.83;99285.22;4993410;28;20161;-78
2022/12/11 07:31:31;;;;;;;17.08;8.02;;;;;;;2.41;64.49;99287.72;4993239;28;20105;-78
2022/12/11 07:34:01;;;;;;;16.30;8.23;;;;;;;2.43;65.20;99291.13;4993559;28;20062;-78
2022/12/11 07:36:29;;;;;;;17.58;8.07;;;;;;;2.46;64.66;99285.84;4993254;28;20093;-78
2022/12/11 07:38:55;;;;;;;16.65;8.15;;;;;;;2.50;64.35;99285.75;4993452;28;20066;-78
2022/12/11 07:41:22;;;;;;;16.55;8.20;;;;;;;2.51;64.33;99279.66;4993303;28;20105;-78
2022/12/11 07:43:48;;;;;;;16.73;8.90;;;;;;;2.53;64.67;99285.63;4993211;28;20133;-78
2022/12/11 07:46:17;;;;;;;20.75;9.52;;;;;;;2.55;64.60;99289.03;4992980;28;20065;-78
2022/12/11 07:48:46;;;;;;;17.73;8.63;;;;;;;2.56;64.47;99285.53;4993062;28;20061;-78
2022/12/11 07:51:16;;;;;;;19.70;9.73;;;;;;;2.59;64.62;99286.28;4992454;28;20050;-78
2022/12/11 07:53:49;;;;;;;19.45;9.15;;;;;;;2.60;64.00;99287.16;4975544;28;20105;-78
2022/12/11 07:56:16;;;;;;;20.23;9.93;;;;;;;2.63;64.08;99287.06;4992619;28;20084;-78
2022/12/11 07:58:44;;;;;;;21.05;10.38;;;;;;;2.65;64.55;99290.44;4989205;28;20093;-78
2022/12/11 08:01:24;;;;;;;20.50;10.02;;;;;;;2.64;64.62;99285.28;4992697;28;20473;-78
2022/12/11 08:03:52;;;;;;;20.08;9.00;;;;;;;2.68;64.40;99287.75;4991691;28;20068;-78
2022/12/11 08:06:23;;;;;;;21.30;10.15;;;;;;;2.70;64.79;99283.34;5000640;28;20053;-78
2022/12/11 08:08:49;;;;;;;22.90;10.45;;;;;;;2.72;64.56;99296.28;4992997;28;20096;-78
2022/12/11 08:11:15;;;;;;;24.35;11.20;;;;;;;2.73;63.88;99287.63;4993046;28;20194;-78
2022/12/11 08:13:42;;;;;;;21.55;10.80;;;;;;;2.72;64.20;99283.28;4992993;28;20094;-78
2022/12/11 08:16:12;;;;;;;26.55;11.75;;;;;;;2.73;64.14;99292.81;4989600;28;20050;-77
2022/12/11 08:18:40;;;;;;;21.88;10.23;;;;;;;2.73;63.83;99291.06;4992170;28;20446;-78
2022/12/11 08:21:15;;;;;;;28.70;12.15;;;;;;;2.69;63.90;99292.03;4990796;28;20110;-78
2022/12/11 08:23:42;;;;;;;26.45;11.43;;;;;;;2.68;64.02;99295.56;4990864;28;20133;-78
2022/12/11 08:26:13;;;;;;;22.25;10.73;;;;;;;2.61;63.99;99299.22;4996472;28;20050;-77
2022/12/11 08:28:40;;;;;;;26.80;11.30;;;;;;;2.55;63.20;99300.28;4992073;28;20081;-77
2022/12/11 08:31:08;;;;;;;26.08;11.30;;;;;;;2.48;63.74;99302.22;4992536;28;20063;-77
2022/12/11 08:33:36;;;;;;;23.92;10.95;;;;;;;2.42;64.20;99305.00;4974973;28;20051;-78
2022/12/11 08:36:04;;;;;;;29.42;11.15;;;;;;;2.38;64.07;99308.59;4992023;28;20088;-78
2022/12/11 08:38:30;;;;;;;28.40;11.57;;;;;;;2.37;64.52;99306.03;4992304;28;20081;-77
2022/12/11 08:40:57;;;;;;;24.98;11.00;;;;;;;2.36;64.39;99309.53;4992215;28;20047;-78
2022/12/11 08:43:23;;;;;;;25.13;11.35;;;;;;;2.36;65.11;99305.22;4992212;28;20062;-78
2022/12/11 08:45:50;;;;;;;31.17;11.90;;;;;;;2.36;64.65;99307.81;4992352;28;20137;-77
2022/12/11 08:48:16;;;;;;;27.70;11.77;;;;;;;2.37;64.49;99304.31;4974733;28;20117;-78
2022/12/11 08:50:43;;;;;;;25.58;11.43;;;;;;;2.38;64.66;99311.19;4991947;28;20481;-77
2022/12/11 08:53:09;;;;;;;23.88;11.57;;;;;;;2.38;64.33;99307.72;4992039;28;20062;-77
2022/12/11 08:55:35;;;;;;;23.45;11.23;;;;;;;2.39;64.86;99309.47;4991871;28;20093;-78
2022/12/11 08:58:02;;;;;;;21.73;10.00;;;;;;;2.40;64.65;99304.22;4991786;28;20054;-78
2022/12/11 09:00:28;;;;;;;25.23;11.35;;;;;;;2.39;64.93;99297.31;4991863;28;20539;-78
2022/12/11 09:02:55;;;;;;;27.23;11.00;;;;;;;2.40;64.88;99293.84;4991778;28;20145;-78
2022/12/11 09:05:21;;;;;;;22.65;9.82;;;;;;;2.41;64.49;99298.13;4991612;28;20406;-78
2022/12/11 09:07:48;;;;;;;24.45;10.55;;;;;;;2.43;64.61;99285.91;4991636;28;20089;-78
2022/12/11 09:10:14;;;;;;;20.60;9.43;;;;;;;2.44;65.08;99302.38;4991893;28;20066;-78
2022/12/11 09:12:41;;;;;;;26.02;9.55;;;;;;;2.46;65.11;99290.16;4991638;28;20539;-78
2022/12/11 09:15:08;;;;;;;26.77;11.15;;;;;;;2.52;64.88;99291.72;4991517;28;20054;-78
2022/12/11 09:17:34;;;;;;;22.63;10.63;;;;;;;2.54;65.22;99293.38;4991359;28;20381;-78
2022/12/11 09:20:01;;;;;;;21.45;9.23;;;;;;;2.58;64.76;99282.00;4974364;28;20062;-78
2022/12/11 09:22:27;;;;;;;22.67;10.50;;;;;;;2.61;64.94;99288.84;4991476;28;20085;-78
2022/12/11 09:24:53;;;;;;;26.75;11.45;;;;;;;2.65;64.78;99285.25;4991692;28;20082;-78
2022/12/11 09:27:21;;;;;;;23.38;10.70;;;;;;;2.71;64.87;99281.59;4991289;28;20090;-78
2022/12/11 09:29:47;;;;;;;23.90;11.00;;;;;;;2.76;64.75;99284.91;4991615;28;20054;-78
2022/12/11 09:32:13;;;;;;;23.92;10.45;;;;;;;2.80;64.76;99283.06;4991123;28;20086;-78
2022/12/11 09:34:40;;;;;;;23.35;11.45;;;;;;;2.85;64.90;99278.56;4991392;28;20089;-78
2022/12/11 09:37:06;;;;;;;22.40;11.60;;;;;;;2.90;65.26;99279.25;4991034;28;20090;-77
2022/12/11 09:39:32;;;;;;;25.23;11.00;;;;;;;2.95;65.11;99276.53;4991173;28;20058;-77
2022/12/11 09:42:09;;;;;;;24.35;11.10;;;;;;;2.96;64.99;99273.84;4991028;28;20085;-77
2022/12/11 09:44:45;;;;;;;28.15;11.45;;;;;;;3.01;65.08;99276.31;4990568;28;20129;-77
2022/12/11 09:47:19;;;;;;;25.92;11.27;;;;;;;3.05;64.64;99277.03;4989517;28;20469;-78
2022/12/11 09:49:52;;;;;;;22.88;10.50;;;;;;;3.10;64.47;99275.16;4991027;28;20093;-77
2022/12/11 09:52:33;;;;;;;19.33;8.02;;;;;;;3.10;64.87;99267.34;4990869;28;20137;-77
2022/12/11 09:55:05;;;;;;;23.67;10.85;;;;;;;3.15;64.59;99268.03;4990723;28;20137;-77
2022/12/11 09:57:45;;;;;;;23.08;11.70;;;;;;;3.18;64.35;99256.69;4973177;28;20058;-77
2022/12/11 10:00:18;;;;;;;29.65;11.27;;;;;;;3.21;64.58;99256.59;4990757;28;20497;-78
2022/12/11 10:03:26;;;;;;;23.70;12.13;;;;;;;3.21;64.46;99253.97;4991127;28;20085;-77
2022/12/11 10:06:06;;;;;;;27.40;12.73;;;;;;;3.23;64.41;99257.34;4951251;28;20141;-78
2022/12/11 10:08:49;;;;;;;30.58;12.93;;;;;;;3.23;64.46;99255.63;4990457;28;20153;-77
2022/12/11 10:11:37;;;;;;;26.85;12.68;;;;;;;3.26;64.54;99257.25;4984617;28;20133;-78
2022/12/11 10:14:37;;;;;;;28.63;11.45;;;;;;;3.25;64.20;99256.41;4990219;28;20101;-78
2022/12/11 10:17:17;;;;;;;23.42;11.13;;;;;;;3.28;64.54;99257.22;4990310;28;20114;-78
2022/12/11 10:19:44;;;;;;;26.52;12.18;;;;;;;3.30;64.19;99258.84;4990012;28;20089;-78
2022/12/11 10:22:17;;;;;;;24.88;10.88;;;;;;;3.30;64.60;99255.41;4987636;28;20062;-78
2022/12/11 10:24:54;;;;;;;24.92;10.38;;;;;;;3.31;64.15;99259.69;4990028;28;20101;-78
2022/12/11 10:27:39;;;;;;;21.85;10.18;;;;;;;3.33;64.15;99266.53;4989768;28;20534;-78
2022/12/11 10:30:11;;;;;;;21.90;10.73;;;;;;;3.34;64.15;99262.19;4983859;28;20062;-78
2022/12/11 10:32:50;;;;;;;23.35;10.43;;;;;;;3.34;64.63;99263.06;4989891;28;20086;-78
2022/12/11 10:35:28;;;;;;;20.48;10.00;;;;;;;3.36;64.18;99262.97;4989864;28;20093;-78
2022/12/11 10:38:01;;;;;;;21.90;10.65;;;;;;;3.39;64.04;99268.06;4972806;28;20106;-78
2022/12/11 10:40:28;;;;;;;;;;;;;;;3.39;64.62;99261.13;4990822;28;20356;-78
2022/12/11 10:42:54;;;;;;;21.08;9.48;;;;;;;3.44;64.22;99262.72;4990209;28;19965;-78
2022/12/11 10:45:20;;;;;;;19.15;9.93;;;;;;;3.43;64.41;99256.66;4989852;28;20564;-78
2022/12/11 10:47:47;;;;;;;18.05;8.65;;;;;;;3.43;63.99;99261.03;4989954;28;20145;-78
2022/12/11 10:50:25;;;;;;;19.77;9.93;;;;;;;3.40;63.98;99254.16;4990134;28;20054;-78
2022/12/11 10:52:52;;;;;;;18.23;9.02;;;;;;;3.45;64.15;99260.06;4990136;28;20092;-78
2022/12/11 10:55:29;;;;;;;17.35;9.07;;;;;;;3.43;64.06;99256.66;4972662;28;20137;-78
2022/12/11 10:57:59;;;;;;;21.13;9.48;;;;;;;3.48;64.46;99259.09;4990696;28;20165;-78
2022/12/11 11:00:33;;;;;;;23.67;9.32;;;;;;;3.47;64.24;99253.03;4994486;28;20058;-78
2022/12/11 11:03:01;;;;;;;21.25;8.95;;;;;;;3.51;64.05;99254.63;4994363;28;20054;-78
2022/12/11 11:05:34;;;;;;;20.20;10.18;;;;;;;3.51;64.15;99254.63;4994039;28;20054;-78
2022/12/11 11:08:10;;;;;;;19.10;9.77;;;;;;;3.54;63.68;99258.03;4994195;28;20082;-78
2022/12/11 11:10:36;;;;;;;20.20;9.73;;;;;;;3.57;64.37;99250.09;4993219;28;20058;-78
2022/12/11 11:13:03;;;;;;;19.17;8.55;;;;;;;3.58;64.15;99254.41;4993841;28;20092;-78
2022/12/11 11:15:30;;;;;;;17.75;9.40;;;;;;;3.58;63.93;99255.25;4992198;28;20054;-79
2022/12/11 11:18:03;;;;;;;18.33;9.38;;;;;;;3.59;64.17;99250.91;4985440;28;20086;-78
2022/12/11 11:20:30;;;;;;;22.70;9.95;;;;;;;3.61;64.12;99244.75;4991939;28;20054;-78
2022/12/11 11:23:02;;;;;;;19.08;10.68;;;;;;;3.63;64.25;99242.09;4993703;28;20078;-78
2022/12/11 11:25:31;;;;;;;23.10;10.32;;;;;;;3.65;64.10;99241.13;4992844;28;20062;-78
2022/12/11 11:28:01;;;;;;;19.13;9.57;;;;;;;3.67;64.37;99232.41;4985825;28;20108;-77
2022/12/11 11:30:34;;;;;;;17.20;8.60;;;;;;;3.68;64.03;99227.16;4993842;28;20062;-78
2022/12/11 11:33:04;;;;;;;18.27;10.05;;;;;;;3.69;63.85;99228.84;4993456;28;20081;-78
2022/12/11 11:35:31;;;;;;;20.75;9.57;;;;;;;3.71;63.82;99232.25;4993245;28;20152;-78
2022/12/11 11:38:17;;;;;;;20.05;9.90;;;;;;;3.68;64.09;99223.69;4992216;28;20066;-78
2022/12/11 11:40:58;;;;;;;19.27;9.68;;;;;;;3.70;64.13;99227.91;4993496;28;20117;-78
2022/12/11 11:43:41;;;;;;;20.75;10.85;;;;;;;3.73;64.13;99220.00;4993237;28;20057;-77
2022/12/11 11:46:22;;;;;;;17.92;9.80;;;;;;;3.74;64.10;99224.31;4975919;28;20157;-78
2022/12/11 11:49:03;;;;;;;17.95;9.93;;;;;;;3.74;63.94;99215.66;4993259;28;20105;-78
2022/12/11 11:51:36;;;;;;;17.42;9.77;;;;;;;3.76;63.71;99221.66;4993515;28;20098;-78
2022/12/11 11:54:08;;;;;;;;;;;;;;;3.78;63.65;99212.03;4993841;28;20054;-79
2022/12/11 11:56:36;;;;;;;19.02;9.32;;;;;;;3.82;63.79;99217.97;4993244;28;19933;-79
2022/12/11 11:59:30;;;;;;;18.52;9.00;;;;;;;3.77;63.73;99220.72;4993043;28;20050;-78
2022/12/11 12:01:57;;;;;;;16.35;8.55;;;;;;;3.79;63.72;99216.34;4975651;28;20458;-78
2022/12/11 12:04:33;;;;;;;17.33;9.23;;;;;;;3.75;63.60;99220.81;4992728;28;20575;-78
2022/12/11 12:07:37;;;;;;;19.85;10.32;;;;;;;3.72;63.60;99218.31;4992652;28;20572;-78
2022/12/11 12:10:31;;;;;;;21.73;9.70;;;;;;;3.74;63.85;99208.69;4992881;28;20050;-78